Time;durP1;ratioP1;P1;durP2;ratioP2;P2;SDS_P1;SDS_P2;PMS_P1;PMS_P2;Temp;Humidity;BMP_temperature;BMP_pressure;BME280_temperature;BME280_humidity;BME280_pressure;Samples;Min_cycle;Max_cycle;Signal;HPM_P1;HPM_P2
2020/12/27 06:13:48;;;;;;;0.80;0.40;;;6.90;99.90;;;;;;6121224;23;20194;-81
2020/12/27 06:17:02;;;;;;;0.95;0.40;;;6.90;99.90;;;;;;6122444;23;20177;-81
2020/12/27 06:19:59;;;;;;;0.80;0.40;;;6.90;99.90;;;;;;6143380;23;20188;-81
2020/12/27 06:22:32;;;;;;;0.90;0.40;;;7.00;99.90;;;;;;6122432;23;20174;-81
2020/12/27 06:25:21;;;;;;;1.20;0.40;;;6.90;99.90;;;;;;6078732;23;20247;-81
2020/12/27 06:27:50;;;;;;;0.80;0.40;;;6.90;99.90;;;;;;6146533;23;20475;-81
2020/12/27 06:30:20;;;;;;;0.90;0.40;;;6.90;99.90;;;;;;6152601;23;20147;-82
2020/12/27 06:33:23;;;;;;;0.80;0.40;;;6.90;99.90;;;;;;6122572;23;20167;-82
2020/12/27 06:35:49;;;;;;;0.80;0.40;;;6.90;99.90;;;;;;6122532;23;20308;-82
2020/12/27 06:38:20;;;;;;;0.95;0.50;;;7.00;99.90;;;;;;6121836;23;20230;-82
2020/12/27 06:41:04;;;;;;;0.80;0.40;;;6.90;99.90;;;;;;6122042;23;20135;-81
2020/12/27 06:43:50;;;;;;;0.88;0.40;;;6.90;99.90;;;;;;6122791;23;20155;-81
2020/12/27 06:46:46;;;;;;;0.98;0.40;;;6.90;99.90;;;;;;6123939;23;20187;-81
2020/12/27 06:49:23;;;;;;;0.80;0.40;;;7.00;99.90;;;;;;6121663;23;20500;-81
2020/12/27 06:52:25;;;;;;;0.90;0.50;;;7.00;99.90;;;;;;6109316;23;20171;-82
2020/12/27 06:55:10;;;;;;;0.90;0.40;;;7.00;99.90;;;;;;6123835;23;20143;-82
2020/12/27 06:58:27;;;;;;;0.90;0.40;;;7.10;99.90;;;;;;6121005;23;20155;-82
2020/12/27 07:53:16;;;;;;;0.90;0.40;;;7.00;99.90;;;;;;5936795;24;20190;-81
2020/12/27 13:01:36;;;;;;;0.85;0.40;;;8.10;99.90;;;;;;5794951;24;20182;-81
2020/12/27 14:52:30;;;;;;;;;;;;;;;;;;;;;
2020/12/27 15:13:02;;;;;;;;;;;;;;;;;;;;;
2020/12/27 15:59:27;;;;;;;;;;;;;;;;;;;;;
2020/12/27 16:16:02;;;;;;;;;;;;;;;;;;;;;
2020/12/27 16:41:25;;;;;;;1.00;0.35;;;8.10;99.90;;;;;;5928222;23;20161;-83
2020/12/27 16:44:53;;;;;;;0.80;0.40;;;7.90;99.90;;;;;;5877590;24;20239;-82
2020/12/27 16:52:51;;;;;;;1.00;0.40;;;7.90;99.90;;;;;;5947539;23;20175;-82
2020/12/27 17:31:07;;;;;;;1.00;0.45;;;8.00;99.90;;;;;;5922955;24;20181;-82
2020/12/27 17:52:42;;;;;;;1.00;0.55;;;8.10;99.90;;;;;;6088893;23;20203;-79
2020/12/27 17:57:08;;;;;;;;;;;;;;;;;;;;;
2020/12/27 19:22:25;;;;;;;;;;;;;;;;;;;;;
2020/12/27 22:06:27;;;;;;;;;;;;;;;;;;;;;
2020/12/27 22:19:43;;;;;;;;;;;;;;;;;;;;;
2020/12/27 22:24:23;;;;;;;;;;;;;;;;;;;;;
2020/12/27 22:28:01;;;;;;;;;;;;;;;;;;;;;
2020/12/27 22:44:08;;;;;;;0.90;0.40;;;8.20;99.90;;;;;;6124648;23;20201;-81
2020/12/27 22:46:34;;;;;;;0.80;0.40;;;8.10;99.90;;;;;;6185184;23;20547;-81
2020/12/27 22:49:00;;;;;;;0.90;0.40;;;8.10;99.90;;;;;;6181824;23;20152;-81
2020/12/27 22:51:26;;;;;;;0.90;0.57;;;8.00;99.90;;;;;;6182355;23;20154;-83
2020/12/27 22:53:52;;;;;;;1.15;0.40;;;8.00;99.90;;;;;;6191998;23;20172;-83
2020/12/27 22:56:22;;;;;;;1.40;0.50;;;7.90;99.90;;;;;;6194422;23;20149;-83
2020/12/27 22:58:48;;;;;;;1.75;0.45;;;7.90;99.90;;;;;;6182500;23;20149;-81
2020/12/27 23:01:14;;;;;;;1.00;0.40;;;7.80;99.90;;;;;;6206484;23;20490;-82
2020/12/27 23:03:41;;;;;;;1.10;0.45;;;7.80;99.90;;;;;;6182002;23;20212;-82
2020/12/27 23:06:10;;;;;;;0.90;0.40;;;7.80;99.90;;;;;;6156553;23;20181;-82
2020/12/27 23:08:36;;;;;;;0.98;0.40;;;7.70;99.90;;;;;;6182186;23;20142;-81
2020/12/27 23:11:02;;;;;;;0.90;0.40;;;7.70;99.90;;;;;;6181247;23;20142;-82
2020/12/27 23:13:28;;;;;;;0.90;0.40;;;7.70;99.90;;;;;;6156482;23;20661;-82
2020/12/27 23:15:54;;;;;;;0.80;0.47;;;7.60;99.90;;;;;;6181469;23;20193;-81
2020/12/27 23:18:19;;;;;;;1.00;0.50;;;7.60;99.90;;;;;;6205856;23;20220;-81
2020/12/27 23:20:48;;;;;;;0.90;0.40;;;7.60;99.90;;;;;;6180999;23;20153;-81
2020/12/27 23:23:14;;;;;;;1.73;0.50;;;7.60;99.90;;;;;;6181964;23;21216;-81
2020/12/27 23:25:40;;;;;;;1.00;0.50;;;7.60;99.90;;;;;;6182759;23;20158;-81
2020/12/27 23:28:06;;;;;;;0.90;0.50;;;7.50;99.90;;;;;;6182436;23;20142;-82
2020/12/27 23:30:34;;;;;;;1.45;0.40;;;7.50;99.90;;;;;;6182827;23;20565;-82
2020/12/27 23:33:03;;;;;;;0.90;0.40;;;7.50;99.90;;;;;;6156348;23;20178;-81
2020/12/27 23:35:42;;;;;;;1.10;0.40;;;7.40;99.90;;;;;;6158877;23;20126;-83
2020/12/27 23:38:17;;;;;;;1.52;0.40;;;7.40;99.90;;;;;;6206340;23;20141;-78
2020/12/27 23:40:43;;;;;;;0.98;0.47;;;7.40;99.90;;;;;;6180853;23;20154;-80
2020/12/27 23:43:09;;;;;;;1.70;0.50;;;7.30;99.90;;;;;;6182687;23;20173;-81
2020/12/27 23:45:35;;;;;;;0.80;0.40;;;7.30;99.90;;;;;;6182128;23;20525;-81
2020/12/27 23:48:01;;;;;;;1.00;0.50;;;7.30;99.90;;;;;;6180608;23;20228;-81
2020/12/27 23:50:39;;;;;;;0.90;0.40;;;7.30;99.90;;;;;;6182172;23;20157;-82
2020/12/27 23:53:13;;;;;;;0.80;0.40;;;7.30;99.90;;;;;;6182574;23;20275;-81
2020/12/27 23:55:39;;;;;;;0.90;0.50;;;7.30;99.90;;;;;;6182671;23;20173;-81
2020/12/27 23:58:05;;;;;;;0.97;0.50;;;7.30;99.90;;;;;;6205385;23;21042;-81
